sensor_id;sensor_type;location;lat;lon;timestamp;temperature;humidity
11925;DHT22;6022;48.768;18.608;2022-12-07T00:01:42;3.20;99.90
11925;DHT22;6022;48.768;18.608;2022-12-07T00:04:13;3.30;99.90
11925;DHT22;6022;48.768;18.608;2022-12-07T00:06:44;3.20;99.90
11925;DHT22;6022;48.768;18.608;2022-12-07T00:09:15;3.20;99.90
11925;DHT22;6022;48.768;18.608;2022-12-07T00:11:44;3.30;99.90
11925;DHT22;6022;48.768;18.608;2022-12-07T00:14:15;3.20;99.90
11925;DHT22;6022;48.768;18.608;2022-12-07T00:16:44;3.30;99.90
11925;DHT22;6022;48.768;18.608;2022-12-07T00:19:13;3.30;99.90
11925;DHT22;6022;48.768;18.608;2022-12-07T00:21:40;3.30;99.90
11925;DHT22;6022;48.768;18.608;2022-12-07T00:24:10;3.30;99.90
11925;DHT22;6022;48.768;18.608;2022-12-07T00:26:39;3.20;99.90
11925;DHT22;6022;48.768;18.608;2022-12-07T00:29:19;3.30;99.90
11925;DHT22;6022;48.768;18.608;2022-12-07T00:31:48;2.90;99.90
11925;DHT22;6022;48.768;18.608;2022-12-07T00:34:18;3.20;99.90
11925;DHT22;6022;48.768;18.608;2022-12-07T00:36:47;3.30;99.90
11925;DHT22;6022;48.768;18.608;2022-12-07T00:39:15;3.40;99.90
11925;DHT22;6022;48.768;18.608;2022-12-07T00:41:42;3.20;99.90
11925;DHT22;6022;48.768;18.608;2022-12-07T00:44:09;3.30;99.90
11925;DHT22;6022;48.768;18.608;2022-12-07T00:46:37;3.40;99.90
11925;DHT22;6022;48.768;18.608;2022-12-07T00:49:04;2.90;99.90
11925;DHT22;6022;48.768;18.608;2022-12-07T00:51:31;3.40;99.90
11925;DHT22;6022;48.768;18.608;2022-12-07T00:53:58;3.30;99.90
11925;DHT22;6022;48.768;18.608;2022-12-07T00:56:26;3.40;99.90
11925;DHT22;6022;48.768;18.608;2022-12-07T00:58:57;3.20;99.90
11925;DHT22;6022;48.768;18.608;2022-12-07T01:01:28;3.30;99.90
11925;DHT22;6022;48.768;18.608;2022-12-07T01:03:57;3.20;99.90
11925;DHT22;6022;48.768;18.608;2022-12-07T01:06:25;3.20;99.90
11925;DHT22;6022;48.768;18.608;2022-12-07T01:08:52;3.20;99.90
11925;DHT22;6022;48.768;18.608;2022-12-07T01:11:23;3.30;99.90
11925;DHT22;6022;48.768;18.608;2022-12-07T01:13:52;3.30;99.90
11925;DHT22;6022;48.768;18.608;2022-12-07T01:16:22;3.30;99.90
11925;DHT22;6022;48.768;18.608;2022-12-07T01:18:53;3.20;99.90
11925;DHT22;6022;48.768;18.608;2022-12-07T01:21:23;3.40;99.90
11925;DHT22;6022;48.768;18.608;2022-12-07T01:24:02;3.00;99.90
11925;DHT22;6022;48.768;18.608;2022-12-07T01:26:33;3.30;99.90
11925;DHT22;6022;48.768;18.608;2022-12-07T01:29:00;3.20;99.90
11925;DHT22;6022;48.768;18.608;2022-12-07T01:31:28;3.40;99.90
11925;DHT22;6022;48.768;18.608;2022-12-07T01:33:57;3.50;99.90
11925;DHT22;6022;48.768;18.608;2022-12-07T01:36:28;3.30;99.90
11925;DHT22;6022;48.768;18.608;2022-12-07T01:39:04;3.50;99.90
11925;DHT22;6022;48.768;18.608;2022-12-07T01:41:37;3.30;99.90
11925;DHT22;6022;48.768;18.608;2022-12-07T01:44:14;3.30;99.90
11925;DHT22;6022;48.768;18.608;2022-12-07T01:49:29;3.00;99.90
11925;DHT22;6022;48.768;18.608;2022-12-07T01:52:18;3.40;99.90
11925;DHT22;6022;48.768;18.608;2022-12-07T01:54:50;3.00;99.90
11925;DHT22;6022;48.768;18.608;2022-12-07T01:57:21;3.00;99.90
11925;DHT22;6022;48.768;18.608;2022-12-07T01:59:51;3.30;99.90
11925;DHT22;6022;48.768;18.608;2022-12-07T02:02:29;3.10;99.90
11925;DHT22;6022;48.768;18.608;2022-12-07T02:05:01;3.30;99.90
11925;DHT22;6022;48.768;18.608;2022-12-07T02:07:31;3.40;99.90
11925;DHT22;6022;48.768;18.608;2022-12-07T02:10:16;3.20;99.90
11925;DHT22;6022;48.768;18.608;2022-12-07T02:12:57;2.90;99.90
11925;DHT22;6022;48.768;18.608;2022-12-07T02:22:01;3.20;99.90
11925;DHT22;6022;48.768;18.608;2022-12-07T02:25:14;3.20;99.90
11925;DHT22;6022;48.768;18.608;2022-12-07T02:30:44;2.90;99.90
11925;DHT22;6022;48.768;18.608;2022-12-07T02:33:17;3.00;99.90
11925;DHT22;6022;48.768;18.608;2022-12-07T02:36:07;3.10;99.90
11925;DHT22;6022;48.768;18.608;2022-12-07T02:38:45;3.10;99.90
11925;DHT22;6022;48.768;18.608;2022-12-07T02:41:24;2.50;99.90
11925;DHT22;6022;48.768;18.608;2022-12-07T02:44:03;3.20;99.90
11925;DHT22;6022;48.768;18.608;2022-12-07T02:46:40;3.30;99.90
11925;DHT22;6022;48.768;18.608;2022-12-07T02:49:10;3.30;99.90
11925;DHT22;6022;48.768;18.608;2022-12-07T02:51:43;2.90;99.90
11925;DHT22;6022;48.768;18.608;2022-12-07T02:54:15;3.30;99.90
11925;DHT22;6022;48.768;18.608;2022-12-07T02:57:08;3.40;99.90
11925;DHT22;6022;48.768;18.608;2022-12-07T03:02:58;3.20;99.90
11925;DHT22;6022;48.768;18.608;2022-12-07T03:08:44;3.50;99.90
11925;DHT22;6022;48.768;18.608;2022-12-07T03:11:42;2.90;99.90
11925;DHT22;6022;48.768;18.608;2022-12-07T03:17:14;3.30;99.90
11925;DHT22;6022;48.768;18.608;2022-12-07T03:19:45;3.10;99.90
11925;DHT22;6022;48.768;18.608;2022-12-07T03:22:16;3.20;99.90
11925;DHT22;6022;48.768;18.608;2022-12-07T03:24:52;3.10;99.90
11925;DHT22;6022;48.768;18.608;2022-12-07T03:27:34;3.00;99.90
11925;DHT22;6022;48.768;18.608;2022-12-07T03:30:20;3.20;99.90
11925;DHT22;6022;48.768;18.608;2022-12-07T03:33:04;3.10;99.90
11925;DHT22;6022;48.768;18.608;2022-12-07T03:35:51;2.90;99.90
11925;DHT22;6022;48.768;18.608;2022-12-07T03:38:40;3.10;99.90
11925;DHT22;6022;48.768;18.608;2022-12-07T03:41:18;3.40;99.90
11925;DHT22;6022;48.768;18.608;2022-12-07T03:43:54;3.10;99.90
11925;DHT22;6022;48.768;18.608;2022-12-07T03:46:45;3.30;99.90
11925;DHT22;6022;48.768;18.608;2022-12-07T03:55:19;3.00;99.90
11925;DHT22;6022;48.768;18.608;2022-12-07T03:57:55;3.00;99.90
11925;DHT22;6022;48.768;18.608;2022-12-07T04:00:26;3.10;99.90
11925;DHT22;6022;48.768;18.608;2022-12-07T04:02:54;2.90;99.90
11925;DHT22;6022;48.768;18.608;2022-12-07T04:05:22;3.00;99.90
11925;DHT22;6022;48.768;18.608;2022-12-07T04:07:50;2.80;99.90
11925;DHT22;6022;48.768;18.608;2022-12-07T04:10:17;3.00;99.90
11925;DHT22;6022;48.768;18.608;2022-12-07T04:12:45;2.80;99.90
11925;DHT22;6022;48.768;18.608;2022-12-07T04:15:12;3.00;99.90
11925;DHT22;6022;48.768;18.608;2022-12-07T04:17:39;3.00;99.90
11925;DHT22;6022;48.768;18.608;2022-12-07T04:20:07;3.00;99.90
11925;DHT22;6022;48.768;18.608;2022-12-07T04:22:35;3.00;99.90
11925;DHT22;6022;48.768;18.608;2022-12-07T04:25:02;2.80;99.90
11925;DHT22;6022;48.768;18.608;2022-12-07T04:27:29;3.30;99.90
11925;DHT22;6022;48.768;18.608;2022-12-07T04:29:56;3.20;99.90
11925;DHT22;6022;48.768;18.608;2022-12-07T04:32:23;3.10;99.90
11925;DHT22;6022;48.768;18.608;2022-12-07T04:34:50;3.20;99.90
11925;DHT22;6022;48.768;18.608;2022-12-07T04:37:22;2.80;99.90
11925;DHT22;6022;48.768;18.608;2022-12-07T04:39:49;3.10;99.90
11925;DHT22;6022;48.768;18.608;2022-12-07T04:42:16;3.10;99.90
11925;DHT22;6022;48.768;18.608;2022-12-07T04:44:43;3.20;99.90
11925;DHT22;6022;48.768;18.608;2022-12-07T04:47:11;3.00;99.90
11925;DHT22;6022;48.768;18.608;2022-12-07T04:49:38;2.80;99.90
11925;DHT22;6022;48.768;18.608;2022-12-07T04:52:05;3.10;99.90
11925;DHT22;6022;48.768;18.608;2022-12-07T04:54:32;3.10;99.90
11925;DHT22;6022;48.768;18.608;2022-12-07T04:56:59;3.00;99.90
11925;DHT22;6022;48.768;18.608;2022-12-07T04:59:26;2.90;99.90
11925;DHT22;6022;48.768;18.608;2022-12-07T05:01:53;3.20;99.90
11925;DHT22;6022;48.768;18.608;2022-12-07T05:04:20;3.20;99.90
11925;DHT22;6022;48.768;18.608;2022-12-07T05:06:48;3.30;99.90
11925;DHT22;6022;48.768;18.608;2022-12-07T05:09:14;3.30;99.90
11925;DHT22;6022;48.768;18.608;2022-12-07T05:11:42;3.40;99.90
11925;DHT22;6022;48.768;18.608;2022-12-07T05:16:45;3.20;99.90
11925;DHT22;6022;48.768;18.608;2022-12-07T05:19:15;3.30;99.90
11925;DHT22;6022;48.768;18.608;2022-12-07T05:21:43;3.10;99.90
11925;DHT22;6022;48.768;18.608;2022-12-07T05:24:12;3.40;99.90
11925;DHT22;6022;48.768;18.608;2022-12-07T05:26:41;3.40;99.90
11925;DHT22;6022;48.768;18.608;2022-12-07T05:29:12;3.10;99.90
11925;DHT22;6022;48.768;18.608;2022-12-07T05:31:40;3.30;99.90
11925;DHT22;6022;48.768;18.608;2022-12-07T05:34:08;3.40;99.90
11925;DHT22;6022;48.768;18.608;2022-12-07T05:36:36;3.50;99.90
11925;DHT22;6022;48.768;18.608;2022-12-07T05:39:03;3.20;99.90
11925;DHT22;6022;48.768;18.608;2022-12-07T05:41:30;3.20;99.90
11925;DHT22;6022;48.768;18.608;2022-12-07T05:44:16;3.20;99.90
11925;DHT22;6022;48.768;18.608;2022-12-07T05:46:43;3.20;99.90
11925;DHT22;6022;48.768;18.608;2022-12-07T05:49:10;3.20;99.90
11925;DHT22;6022;48.768;18.608;2022-12-07T05:51:37;3.20;99.90
11925;DHT22;6022;48.768;18.608;2022-12-07T05:54:04;3.40;99.90
11925;DHT22;6022;48.768;18.608;2022-12-07T05:56:31;3.20;99.90
11925;DHT22;6022;48.768;18.608;2022-12-07T05:58:58;3.10;99.90
11925;DHT22;6022;48.768;18.608;2022-12-07T06:01:44;3.30;99.90
11925;DHT22;6022;48.768;18.608;2022-12-07T06:04:11;3.20;99.90
11925;DHT22;6022;48.768;18.608;2022-12-07T06:06:38;3.30;99.90
11925;DHT22;6022;48.768;18.608;2022-12-07T06:09:05;3.20;99.90
11925;DHT22;6022;48.768;18.608;2022-12-07T06:11:33;3.20;99.90
11925;DHT22;6022;48.768;18.608;2022-12-07T06:14:18;3.30;99.90
11925;DHT22;6022;48.768;18.608;2022-12-07T06:16:45;3.20;99.90
11925;DHT22;6022;48.768;18.608;2022-12-07T06:19:13;3.20;99.90
11925;DHT22;6022;48.768;18.608;2022-12-07T06:21:40;3.40;99.90
11925;DHT22;6022;48.768;18.608;2022-12-07T06:24:08;3.20;99.90
11925;DHT22;6022;48.768;18.608;2022-12-07T06:26:38;3.30;99.90
11925;DHT22;6022;48.768;18.608;2022-12-07T06:29:06;3.20;99.90
11925;DHT22;6022;48.768;18.608;2022-12-07T06:31:35;3.20;99.90
11925;DHT22;6022;48.768;18.608;2022-12-07T06:34:05;3.10;99.90
11925;DHT22;6022;48.768;18.608;2022-12-07T06:36:35;3.30;99.90
11925;DHT22;6022;48.768;18.608;2022-12-07T06:39:03;3.20;99.90
11925;DHT22;6022;48.768;18.608;2022-12-07T06:41:31;2.90;99.90
11925;DHT22;6022;48.768;18.608;2022-12-07T06:43:58;3.20;99.90
11925;DHT22;6022;48.768;18.608;2022-12-07T06:46:25;3.40;99.90
11925;DHT22;6022;48.768;18.608;2022-12-07T06:48:53;3.20;99.90
11925;DHT22;6022;48.768;18.608;2022-12-07T06:51:20;3.30;99.90
11925;DHT22;6022;48.768;18.608;2022-12-07T06:53:47;3.40;99.90
11925;DHT22;6022;48.768;18.608;2022-12-07T06:56:14;3.20;99.90
11925;DHT22;6022;48.768;18.608;2022-12-07T06:58:42;3.20;99.90
11925;DHT22;6022;48.768;18.608;2022-12-07T07:01:13;3.20;99.90
11925;DHT22;6022;48.768;18.608;2022-12-07T07:03:43;3.00;99.90
11925;DHT22;6022;48.768;18.608;2022-12-07T07:06:12;3.40;99.90
11925;DHT22;6022;48.768;18.608;2022-12-07T07:08:39;3.20;99.90
11925;DHT22;6022;48.768;18.608;2022-12-07T07:11:08;3.40;99.90
11925;DHT22;6022;48.768;18.608;2022-12-07T07:13:36;3.50;99.90
11925;DHT22;6022;48.768;18.608;2022-12-07T07:16:05;3.10;99.90
11925;DHT22;6022;48.768;18.608;2022-12-07T07:18:32;3.50;99.90
11925;DHT22;6022;48.768;18.608;2022-12-07T07:20:59;3.40;99.90
11925;DHT22;6022;48.768;18.608;2022-12-07T07:23:27;3.50;99.90
11925;DHT22;6022;48.768;18.608;2022-12-07T07:25:54;3.60;99.90
11925;DHT22;6022;48.768;18.608;2022-12-07T07:28:21;3.40;99.90
11925;DHT22;6022;48.768;18.608;2022-12-07T07:30:49;3.30;99.90
11925;DHT22;6022;48.768;18.608;2022-12-07T07:33:16;3.50;99.90
11925;DHT22;6022;48.768;18.608;2022-12-07T07:35:43;3.40;99.90
11925;DHT22;6022;48.768;18.608;2022-12-07T07:38:10;3.40;99.90
11925;DHT22;6022;48.768;18.608;2022-12-07T07:40:37;3.40;99.90
11925;DHT22;6022;48.768;18.608;2022-12-07T07:43:04;3.50;99.90
11925;DHT22;6022;48.768;18.608;2022-12-07T07:45:31;3.40;99.90
11925;DHT22;6022;48.768;18.608;2022-12-07T07:47:58;3.40;99.90
11925;DHT22;6022;48.768;18.608;2022-12-07T07:50:25;3.50;99.90
11925;DHT22;6022;48.768;18.608;2022-12-07T07:52:53;3.50;99.90
11925;DHT22;6022;48.768;18.608;2022-12-07T07:55:20;3.70;99.90
11925;DHT22;6022;48.768;18.608;2022-12-07T07:57:47;3.70;99.90
11925;DHT22;6022;48.768;18.608;2022-12-07T08:00:20;3.30;99.90
11925;DHT22;6022;48.768;18.608;2022-12-07T08:02:48;3.70;99.90
11925;DHT22;6022;48.768;18.608;2022-12-07T08:05:15;3.60;99.90
11925;DHT22;6022;48.768;18.608;2022-12-07T08:07:43;3.80;99.90
11925;DHT22;6022;48.768;18.608;2022-12-07T08:10:12;3.50;99.90
11925;DHT22;6022;48.768;18.608;2022-12-07T08:12:42;3.90;99.90
11925;DHT22;6022;48.768;18.608;2022-12-07T08:15:30;3.70;99.90
11925;DHT22;6022;48.768;18.608;2022-12-07T08:17:58;3.60;99.90
11925;DHT22;6022;48.768;18.608;2022-12-07T08:20:26;3.90;99.90
11925;DHT22;6022;48.768;18.608;2022-12-07T08:22:53;3.90;99.90
11925;DHT22;6022;48.768;18.608;2022-12-07T08:25:20;4.00;99.90
11925;DHT22;6022;48.768;18.608;2022-12-07T08:27:49;3.90;99.90
11925;DHT22;6022;48.768;18.608;2022-12-07T08:30:18;4.20;99.90
11925;DHT22;6022;48.768;18.608;2022-12-07T08:32:47;4.10;99.90
11925;DHT22;6022;48.768;18.608;2022-12-07T08:35:15;4.70;99.90
11925;DHT22;6022;48.768;18.608;2022-12-07T08:37:42;4.40;99.90
11925;DHT22;6022;48.768;18.608;2022-12-07T08:40:11;4.50;99.90
11925;DHT22;6022;48.768;18.608;2022-12-07T08:42:43;4.50;99.90
11925;DHT22;6022;48.768;18.608;2022-12-07T08:45:14;4.60;99.90
11925;DHT22;6022;48.768;18.608;2022-12-07T08:47:52;4.70;99.90
11925;DHT22;6022;48.768;18.608;2022-12-07T08:50:27;4.80;99.90
11925;DHT22;6022;48.768;18.608;2022-12-07T08:52:56;4.70;99.90
11925;DHT22;6022;48.768;18.608;2022-12-07T08:55:26;4.50;99.90
11925;DHT22;6022;48.768;18.608;2022-12-07T08:57:54;4.60;99.90
11925;DHT22;6022;48.768;18.608;2022-12-07T09:00:23;4.70;99.90
11925;DHT22;6022;48.768;18.608;2022-12-07T09:02:50;4.70;99.90
11925;DHT22;6022;48.768;18.608;2022-12-07T09:05:18;4.80;99.90
11925;DHT22;6022;48.768;18.608;2022-12-07T09:07:47;4.60;99.90
11925;DHT22;6022;48.768;18.608;2022-12-07T09:10:17;4.70;99.90
11925;DHT22;6022;48.768;18.608;2022-12-07T09:12:45;4.80;99.90
11925;DHT22;6022;48.768;18.608;2022-12-07T09:15:12;4.80;99.90
11925;DHT22;6022;48.768;18.608;2022-12-07T09:17:39;4.80;99.90
11925;DHT22;6022;48.768;18.608;2022-12-07T09:20:07;4.90;99.90
11925;DHT22;6022;48.768;18.608;2022-12-07T09:22:34;5.00;99.90
11925;DHT22;6022;48.768;18.608;2022-12-07T09:25:02;5.10;99.90
11925;DHT22;6022;48.768;18.608;2022-12-07T09:27:30;5.20;99.90
11925;DHT22;6022;48.768;18.608;2022-12-07T09:29:59;5.20;99.90
11925;DHT22;6022;48.768;18.608;2022-12-07T09:32:27;5.10;99.90
11925;DHT22;6022;48.768;18.608;2022-12-07T09:34:54;5.10;99.90
11925;DHT22;6022;48.768;18.608;2022-12-07T09:37:22;5.10;99.90
11925;DHT22;6022;48.768;18.608;2022-12-07T09:39:49;5.50;99.90
11925;DHT22;6022;48.768;18.608;2022-12-07T09:42:29;5.40;99.90
11925;DHT22;6022;48.768;18.608;2022-12-07T09:45:01;5.30;99.90
11925;DHT22;6022;48.768;18.608;2022-12-07T09:47:32;5.60;99.90
11925;DHT22;6022;48.768;18.608;2022-12-07T09:50:06;5.50;99.90
11925;DHT22;6022;48.768;18.608;2022-12-07T09:52:39;5.30;99.90
11925;DHT22;6022;48.768;18.608;2022-12-07T09:55:11;5.20;99.90
11925;DHT22;6022;48.768;18.608;2022-12-07T09:57:48;5.20;99.90
11925;DHT22;6022;48.768;18.608;2022-12-07T10:00:20;4.60;99.90
11925;DHT22;6022;48.768;18.608;2022-12-07T10:03:02;4.70;99.90
11925;DHT22;6022;48.768;18.608;2022-12-07T10:05:35;4.70;99.90
11925;DHT22;6022;48.768;18.608;2022-12-07T10:08:09;4.60;99.90
11925;DHT22;6022;48.768;18.608;2022-12-07T10:10:40;4.60;99.90
11925;DHT22;6022;48.768;18.608;2022-12-07T10:13:12;4.70;99.90
11925;DHT22;6022;48.768;18.608;2022-12-07T10:15:57;4.60;99.90
11925;DHT22;6022;48.768;18.608;2022-12-07T10:18:33;4.60;99.90
11925;DHT22;6022;48.768;18.608;2022-12-07T10:23:38;4.60;99.90
11925;DHT22;6022;48.768;18.608;2022-12-07T10:26:20;4.70;99.90
11925;DHT22;6022;48.768;18.608;2022-12-07T10:28:59;4.80;99.90
11925;DHT22;6022;48.768;18.608;2022-12-07T10:31:28;4.90;99.90
11925;DHT22;6022;48.768;18.608;2022-12-07T10:33:58;4.70;99.90
11925;DHT22;6022;48.768;18.608;2022-12-07T10:36:38;4.80;99.90
11925;DHT22;6022;48.768;18.608;2022-12-07T10:39:15;4.70;99.90
11925;DHT22;6022;48.768;18.608;2022-12-07T10:41:59;4.90;99.90
11925;DHT22;6022;48.768;18.608;2022-12-07T10:44:33;4.50;99.90
11925;DHT22;6022;48.768;18.608;2022-12-07T10:47:28;4.60;99.90
11925;DHT22;6022;48.768;18.608;2022-12-07T10:50:21;4.60;99.90
11925;DHT22;6022;48.768;18.608;2022-12-07T10:52:58;4.70;99.90
11925;DHT22;6022;48.768;18.608;2022-12-07T11:05:51;4.90;99.90
11925;DHT22;6022;48.768;18.608;2022-12-07T11:11:24;4.80;99.90
11925;DHT22;6022;48.768;18.608;2022-12-07T11:14:25;4.50;99.90
11925;DHT22;6022;48.768;18.608;2022-12-07T11:25:39;4.70;99.90
11925;DHT22;6022;48.768;18.608;2022-12-07T11:37:17;4.60;99.90
11925;DHT22;6022;48.768;18.608;2022-12-07T11:39:51;4.70;99.90
11925;DHT22;6022;48.768;18.608;2022-12-07T11:42:25;4.80;99.90
11925;DHT22;6022;48.768;18.608;2022-12-07T11:48:04;4.80;99.90
11925;DHT22;6022;48.768;18.608;2022-12-07T11:50:46;4.80;99.90
11925;DHT22;6022;48.768;18.608;2022-12-07T11:53:23;4.70;99.90
11925;DHT22;6022;48.768;18.608;2022-12-07T11:58:49;5.00;99.90
11925;DHT22;6022;48.768;18.608;2022-12-07T12:04:25;5.00;99.90
11925;DHT22;6022;48.768;18.608;2022-12-07T12:06:54;5.30;99.90
11925;DHT22;6022;48.768;18.608;2022-12-07T12:09:34;5.00;99.90
11925;DHT22;6022;48.768;18.608;2022-12-07T12:21:13;4.70;99.90
11925;DHT22;6022;48.768;18.608;2022-12-07T12:23:59;4.70;99.90
11925;DHT22;6022;48.768;18.608;2022-12-07T12:26:32;4.60;99.90
11925;DHT22;6022;48.768;18.608;2022-12-07T12:29:05;4.60;99.90
11925;DHT22;6022;48.768;18.608;2022-12-07T12:31:40;4.80;99.90
11925;DHT22;6022;48.768;18.608;2022-12-07T12:34:37;4.40;99.90
11925;DHT22;6022;48.768;18.608;2022-12-07T12:45:22;4.40;99.90
11925;DHT22;6022;48.768;18.608;2022-12-07T12:50:36;4.40;99.90
11925;DHT22;6022;48.768;18.608;2022-12-07T12:58:44;4.30;99.90
11925;DHT22;6022;48.768;18.608;2022-12-07T13:04:03;4.00;99.90
11925;DHT22;6022;48.768;18.608;2022-12-07T13:06:41;4.30;99.90
11925;DHT22;6022;48.768;18.608;2022-12-07T13:09:23;4.20;99.90
11925;DHT22;6022;48.768;18.608;2022-12-07T13:12:04;4.50;99.90
11925;DHT22;6022;48.768;18.608;2022-12-07T13:14:53;4.30;99.90
11925;DHT22;6022;48.768;18.608;2022-12-07T13:20:00;4.30;99.90
11925;DHT22;6022;48.768;18.608;2022-12-07T13:27:40;4.10;99.90
11925;DHT22;6022;48.768;18.608;2022-12-07T13:30:19;4.50;99.90
11925;DHT22;6022;48.768;18.608;2022-12-07T13:32:55;4.60;99.90
11925;DHT22;6022;48.768;18.608;2022-12-07T13:35:34;4.40;99.90
11925;DHT22;6022;48.768;18.608;2022-12-07T13:38:24;4.20;99.90
11925;DHT22;6022;48.768;18.608;2022-12-07T13:41:14;4.30;99.90
11925;DHT22;6022;48.768;18.608;2022-12-07T13:46:17;4.60;99.90
11925;DHT22;6022;48.768;18.608;2022-12-07T13:48:50;4.30;99.90
11925;DHT22;6022;48.768;18.608;2022-12-07T13:51:25;4.30;99.90
11925;DHT22;6022;48.768;18.608;2022-12-07T13:54:01;4.20;99.90
11925;DHT22;6022;48.768;18.608;2022-12-07T13:56:36;4.20;99.90
11925;DHT22;6022;48.768;18.608;2022-12-07T13:59:10;4.20;99.90
11925;DHT22;6022;48.768;18.608;2022-12-07T14:01:45;4.10;99.90
11925;DHT22;6022;48.768;18.608;2022-12-07T14:04:31;4.20;99.90
11925;DHT22;6022;48.768;18.608;2022-12-07T14:07:25;4.40;99.90
11925;DHT22;6022;48.768;18.608;2022-12-07T14:10:06;4.20;99.90
11925;DHT22;6022;48.768;18.608;2022-12-07T14:12:36;4.20;99.90
11925;DHT22;6022;48.768;18.608;2022-12-07T14:15:04;4.30;99.90
11925;DHT22;6022;48.768;18.608;2022-12-07T14:17:32;4.20;99.90
11925;DHT22;6022;48.768;18.608;2022-12-07T14:20:02;4.20;99.90
11925;DHT22;6022;48.768;18.608;2022-12-07T14:22:37;4.20;99.90
11925;DHT22;6022;48.768;18.608;2022-12-07T14:25:18;4.10;99.90
11925;DHT22;6022;48.768;18.608;2022-12-07T14:27:49;4.10;99.90
11925;DHT22;6022;48.768;18.608;2022-12-07T14:30:23;4.30;99.90
11925;DHT22;6022;48.768;18.608;2022-12-07T14:32:57;4.10;99.90
11925;DHT22;6022;48.768;18.608;2022-12-07T14:35:27;4.10;99.90
11925;DHT22;6022;48.768;18.608;2022-12-07T14:37:55;4.30;99.90
11925;DHT22;6022;48.768;18.608;2022-12-07T14:40:25;4.10;99.90
11925;DHT22;6022;48.768;18.608;2022-12-07T14:43:01;4.10;99.90
11925;DHT22;6022;48.768;18.608;2022-12-07T14:45:28;4.10;99.90
11925;DHT22;6022;48.768;18.608;2022-12-07T14:47:56;4.00;99.90
11925;DHT22;6022;48.768;18.608;2022-12-07T14:50:51;3.90;99.90
11925;DHT22;6022;48.768;18.608;2022-12-07T14:53:44;3.90;99.90
11925;DHT22;6022;48.768;18.608;2022-12-07T14:56:23;3.70;99.90
11925;DHT22;6022;48.768;18.608;2022-12-07T14:58:51;3.90;99.90
11925;DHT22;6022;48.768;18.608;2022-12-07T15:01:18;3.90;99.90
11925;DHT22;6022;48.768;18.608;2022-12-07T15:03:46;4.30;99.90
11925;DHT22;6022;48.768;18.608;2022-12-07T15:06:15;3.90;99.90
11925;DHT22;6022;48.768;18.608;2022-12-07T15:08:44;4.10;99.90
11925;DHT22;6022;48.768;18.608;2022-12-07T15:11:16;4.10;99.90
11925;DHT22;6022;48.768;18.608;2022-12-07T15:13:44;4.00;99.90
11925;DHT22;6022;48.768;18.608;2022-12-07T15:16:31;3.70;99.90
11925;DHT22;6022;48.768;18.608;2022-12-07T15:19:20;3.90;99.90
11925;DHT22;6022;48.768;18.608;2022-12-07T15:21:56;4.00;99.90
11925;DHT22;6022;48.768;18.608;2022-12-07T15:24:24;3.90;99.90
11925;DHT22;6022;48.768;18.608;2022-12-07T15:26:52;3.80;99.90
11925;DHT22;6022;48.768;18.608;2022-12-07T15:29:19;3.90;99.90
11925;DHT22;6022;48.768;18.608;2022-12-07T15:31:50;3.90;99.90
11925;DHT22;6022;48.768;18.608;2022-12-07T15:34:27;4.00;99.90
11925;DHT22;6022;48.768;18.608;2022-12-07T15:37:07;4.00;99.90
11925;DHT22;6022;48.768;18.608;2022-12-07T15:39:37;4.00;99.90
11925;DHT22;6022;48.768;18.608;2022-12-07T15:42:05;3.80;99.90
11925;DHT22;6022;48.768;18.608;2022-12-07T15:44:33;3.70;99.90
11925;DHT22;6022;48.768;18.608;2022-12-07T15:47:19;3.80;99.90
11925;DHT22;6022;48.768;18.608;2022-12-07T15:49:47;3.50;99.90
11925;DHT22;6022;48.768;18.608;2022-12-07T15:52:15;3.80;99.90
11925;DHT22;6022;48.768;18.608;2022-12-07T15:54:42;3.80;99.90
11925;DHT22;6022;48.768;18.608;2022-12-07T15:57:12;3.80;99.90
11925;DHT22;6022;48.768;18.608;2022-12-07T15:59:42;3.90;99.90
11925;DHT22;6022;48.768;18.608;2022-12-07T16:02:13;3.80;99.90
11925;DHT22;6022;48.768;18.608;2022-12-07T16:04:41;3.70;99.90
11925;DHT22;6022;48.768;18.608;2022-12-07T16:07:08;3.70;99.90
11925;DHT22;6022;48.768;18.608;2022-12-07T16:09:38;3.90;99.90
11925;DHT22;6022;48.768;18.608;2022-12-07T16:12:13;3.80;99.90
11925;DHT22;6022;48.768;18.608;2022-12-07T16:14:46;3.70;99.90
11925;DHT22;6022;48.768;18.608;2022-12-07T16:18:35;3.80;99.90
11925;DHT22;6022;48.768;18.608;2022-12-07T16:21:03;3.70;99.90
11925;DHT22;6022;48.768;18.608;2022-12-07T16:23:32;3.80;99.90
11925;DHT22;6022;48.768;18.608;2022-12-07T16:26:12;3.70;99.90
11925;DHT22;6022;48.768;18.608;2022-12-07T16:28:42;3.70;99.90
11925;DHT22;6022;48.768;18.608;2022-12-07T16:31:14;3.70;99.90
11925;DHT22;6022;48.768;18.608;2022-12-07T16:33:43;3.70;99.90
11925;DHT22;6022;48.768;18.608;2022-12-07T16:36:12;3.90;99.90
11925;DHT22;6022;48.768;18.608;2022-12-07T16:39:03;3.70;99.90
11925;DHT22;6022;48.768;18.608;2022-12-07T16:41:31;3.70;99.90
11925;DHT22;6022;48.768;18.608;2022-12-07T16:44:05;3.60;99.90
11925;DHT22;6022;48.768;18.608;2022-12-07T16:46:55;3.60;99.90
11925;DHT22;6022;48.768;18.608;2022-12-07T16:49:22;3.70;99.90
11925;DHT22;6022;48.768;18.608;2022-12-07T16:51:51;3.60;99.90
11925;DHT22;6022;48.768;18.608;2022-12-07T16:54:43;3.70;99.90
11925;DHT22;6022;48.768;18.608;2022-12-07T16:57:12;3.70;99.90
11925;DHT22;6022;48.768;18.608;2022-12-07T16:59:48;3.70;99.90
11925;DHT22;6022;48.768;18.608;2022-12-07T17:02:15;3.40;99.90
11925;DHT22;6022;48.768;18.608;2022-12-07T17:04:42;3.90;99.90
11925;DHT22;6022;48.768;18.608;2022-12-07T17:07:09;3.90;99.90
11925;DHT22;6022;48.768;18.608;2022-12-07T17:09:37;3.50;99.90
11925;DHT22;6022;48.768;18.608;2022-12-07T17:12:11;3.80;99.90
11925;DHT22;6022;48.768;18.608;2022-12-07T17:14:41;3.70;99.90
11925;DHT22;6022;48.768;18.608;2022-12-07T17:17:30;3.70;99.90
11925;DHT22;6022;48.768;18.608;2022-12-07T17:20:00;3.40;99.90
11925;DHT22;6022;48.768;18.608;2022-12-07T17:22:29;3.60;99.90
11925;DHT22;6022;48.768;18.608;2022-12-07T17:24:56;3.60;99.90
11925;DHT22;6022;48.768;18.608;2022-12-07T17:27:24;3.80;99.90
11925;DHT22;6022;48.768;18.608;2022-12-07T17:29:57;3.60;99.90
11925;DHT22;6022;48.768;18.608;2022-12-07T17:32:27;3.60;99.90
11925;DHT22;6022;48.768;18.608;2022-12-07T17:34:57;3.60;99.90
11925;DHT22;6022;48.768;18.608;2022-12-07T17:37:25;3.80;99.90
11925;DHT22;6022;48.768;18.608;2022-12-07T17:39:53;3.50;99.90
11925;DHT22;6022;48.768;18.608;2022-12-07T17:42:27;3.60;99.90
11925;DHT22;6022;48.768;18.608;2022-12-07T17:45:09;3.70;99.90
11925;DHT22;6022;48.768;18.608;2022-12-07T17:47:37;3.60;99.90
11925;DHT22;6022;48.768;18.608;2022-12-07T17:50:09;3.60;99.90
11925;DHT22;6022;48.768;18.608;2022-12-07T17:52:40;3.60;99.90
11925;DHT22;6022;48.768;18.608;2022-12-07T17:55:26;3.60;99.90
11925;DHT22;6022;48.768;18.608;2022-12-07T17:57:53;3.90;99.90
11925;DHT22;6022;48.768;18.608;2022-12-07T18:00:20;3.60;99.90
11925;DHT22;6022;48.768;18.608;2022-12-07T18:02:47;3.60;99.90
11925;DHT22;6022;48.768;18.608;2022-12-07T18:05:15;3.50;99.90
11925;DHT22;6022;48.768;18.608;2022-12-07T18:07:42;3.30;99.90
11925;DHT22;6022;48.768;18.608;2022-12-07T18:10:09;3.70;99.90